Terminal Aerodrome Forecast
Issued by NWS Mt. Holly, NJ

Home | Current Version | Previous Version | Text Only | Print | Product List | Glossary On
Versions: 1 2 3 4 5 6 7 8 9 10 11 12 13 14 15 16 17 18 19 20 21 22 23 24
000
FTAK31 PANC 181832 AAA
TAFABE
TAF AMD
PABE 181832Z 1819/1918 18017G27KT P6SM SCT010 BKN035
      TEMPO 1819/1820 BKN010
     FM190300 16012KT P6SM SCT035=

USA.gov is the U.S. government's official web portal to all federal, state and local government web resources and services.